sensor_id;sensor_type;location;lat;lon;timestamp;temperature;humidity
44817;DHT22;30529;53.570;9.964;2022-11-18T00:00:53;3.40;99.90
44817;DHT22;30529;53.570;9.964;2022-11-18T00:03:19;3.40;99.90
44817;DHT22;30529;53.570;9.964;2022-11-18T00:05:55;3.40;99.90
44817;DHT22;30529;53.570;9.964;2022-11-18T00:08:22;3.50;99.90
44817;DHT22;30529;53.570;9.964;2022-11-18T00:10:50;3.50;99.90
44817;DHT22;30529;53.570;9.964;2022-11-18T00:13:17;3.50;99.90
44817;DHT22;30529;53.570;9.964;2022-11-18T00:16:04;3.40;99.90
44817;DHT22;30529;53.570;9.964;2022-11-18T00:18:31;3.40;99.90
44817;DHT22;30529;53.570;9.964;2022-11-18T00:21:08;3.40;99.90
44817;DHT22;30529;53.570;9.964;2022-11-18T00:23:35;3.40;99.90
44817;DHT22;30529;53.570;9.964;2022-11-18T00:28:30;3.40;99.90
44817;DHT22;30529;53.570;9.964;2022-11-18T00:31:04;3.40;99.90
44817;DHT22;30529;53.570;9.964;2022-11-18T00:33:31;3.30;99.90
44817;DHT22;30529;53.570;9.964;2022-11-18T00:35:58;3.30;99.90
44817;DHT22;30529;53.570;9.964;2022-11-18T00:38:28;3.30;99.90
44817;DHT22;30529;53.570;9.964;2022-11-18T00:40:59;3.20;99.90
44817;DHT22;30529;53.570;9.964;2022-11-18T00:43:25;3.10;99.90
44817;DHT22;30529;53.570;9.964;2022-11-18T00:45:51;3.20;99.90
44817;DHT22;30529;53.570;9.964;2022-11-18T00:48:17;3.20;99.90
44817;DHT22;30529;53.570;9.964;2022-11-18T00:50:58;3.30;99.90
44817;DHT22;30529;53.570;9.964;2022-11-18T00:53:25;3.20;99.90
44817;DHT22;30529;53.570;9.964;2022-11-18T00:55:52;3.30;99.90
44817;DHT22;30529;53.570;9.964;2022-11-18T00:58:21;3.30;99.90
44817;DHT22;30529;53.570;9.964;2022-11-18T01:00:50;3.30;99.90
44817;DHT22;30529;53.570;9.964;2022-11-18T01:03:16;3.30;99.90
44817;DHT22;30529;53.570;9.964;2022-11-18T01:05:43;3.20;99.90
44817;DHT22;30529;53.570;9.964;2022-11-18T01:08:10;3.20;99.90
44817;DHT22;30529;53.570;9.964;2022-11-18T01:10:38;3.20;99.90
44817;DHT22;30529;53.570;9.964;2022-11-18T01:13:06;3.20;99.90
44817;DHT22;30529;53.570;9.964;2022-11-18T01:15:51;3.10;99.90
44817;DHT22;30529;53.570;9.964;2022-11-18T01:18:19;3.10;99.90
44817;DHT22;30529;53.570;9.964;2022-11-18T01:20:46;3.10;99.90
44817;DHT22;30529;53.570;9.964;2022-11-18T01:23:12;3.10;99.90
44817;DHT22;30529;53.570;9.964;2022-11-18T01:25:41;3.00;99.90
44817;DHT22;30529;53.570;9.964;2022-11-18T01:28:07;3.00;99.90
44817;DHT22;30529;53.570;9.964;2022-11-18T01:30:35;3.10;99.90
44817;DHT22;30529;53.570;9.964;2022-11-18T01:33:02;3.10;99.90
44817;DHT22;30529;53.570;9.964;2022-11-18T01:35:36;3.00;99.90
44817;DHT22;30529;53.570;9.964;2022-11-18T01:38:04;2.90;99.90
44817;DHT22;30529;53.570;9.964;2022-11-18T01:40:31;3.00;99.90
44817;DHT22;30529;53.570;9.964;2022-11-18T01:42:58;3.00;99.90
44817;DHT22;30529;53.570;9.964;2022-11-18T01:48:24;3.00;99.90
44817;DHT22;30529;53.570;9.964;2022-11-18T01:51:07;2.90;99.90
44817;DHT22;30529;53.570;9.964;2022-11-18T01:53:37;3.00;99.90
44817;DHT22;30529;53.570;9.964;2022-11-18T01:56:09;2.90;99.90
44817;DHT22;30529;53.570;9.964;2022-11-18T01:58:39;2.90;99.90
44817;DHT22;30529;53.570;9.964;2022-11-18T02:01:07;3.00;99.90
44817;DHT22;30529;53.570;9.964;2022-11-18T02:03:34;2.90;99.90
44817;DHT22;30529;53.570;9.964;2022-11-18T02:06:02;2.80;99.90
44817;DHT22;30529;53.570;9.964;2022-11-18T02:08:29;2.80;99.90
44817;DHT22;30529;53.570;9.964;2022-11-18T02:11:01;2.80;99.90
44817;DHT22;30529;53.570;9.964;2022-11-18T02:13:31;2.80;99.90
44817;DHT22;30529;53.570;9.964;2022-11-18T02:16:05;2.80;99.90
44817;DHT22;30529;53.570;9.964;2022-11-18T02:18:51;2.80;99.90
44817;DHT22;30529;53.570;9.964;2022-11-18T02:24:55;2.80;99.90
44817;DHT22;30529;53.570;9.964;2022-11-18T02:27:42;2.80;99.90
44817;DHT22;30529;53.570;9.964;2022-11-18T02:30:15;2.80;99.90
44817;DHT22;30529;53.570;9.964;2022-11-18T02:32:57;2.80;99.90
44817;DHT22;30529;53.570;9.964;2022-11-18T02:38:06;2.80;99.90
44817;DHT22;30529;53.570;9.964;2022-11-18T02:40:49;2.80;99.90
44817;DHT22;30529;53.570;9.964;2022-11-18T02:43:23;2.90;99.90
44817;DHT22;30529;53.570;9.964;2022-11-18T02:45:56;2.80;99.90
44817;DHT22;30529;53.570;9.964;2022-11-18T02:48:24;2.90;99.90
44817;DHT22;30529;53.570;9.964;2022-11-18T02:50:52;2.90;99.90
44817;DHT22;30529;53.570;9.964;2022-11-18T02:53:20;2.90;99.90
44817;DHT22;30529;53.570;9.964;2022-11-18T02:55:47;2.80;99.90
44817;DHT22;30529;53.570;9.964;2022-11-18T02:58:16;2.80;99.90
44817;DHT22;30529;53.570;9.964;2022-11-18T03:00:43;2.80;99.90
44817;DHT22;30529;53.570;9.964;2022-11-18T03:03:36;2.80;99.90
44817;DHT22;30529;53.570;9.964;2022-11-18T03:08:46;2.80;99.90
44817;DHT22;30529;53.570;9.964;2022-11-18T03:11:21;2.90;99.90
44817;DHT22;30529;53.570;9.964;2022-11-18T03:16:50;2.80;99.90
44817;DHT22;30529;53.570;9.964;2022-11-18T03:22:09;2.80;99.90
44817;DHT22;30529;53.570;9.964;2022-11-18T03:24:40;2.80;99.90
44817;DHT22;30529;53.570;9.964;2022-11-18T03:27:14;2.80;99.90
44817;DHT22;30529;53.570;9.964;2022-11-18T03:29:53;2.80;99.90
44817;DHT22;30529;53.570;9.964;2022-11-18T03:32:26;2.80;99.90
44817;DHT22;30529;53.570;9.964;2022-11-18T03:34:58;2.70;99.90
44817;DHT22;30529;53.570;9.964;2022-11-18T03:37:26;2.70;99.90
44817;DHT22;30529;53.570;9.964;2022-11-18T03:39:58;2.80;99.90
44817;DHT22;30529;53.570;9.964;2022-11-18T03:42:34;2.80;99.90
44817;DHT22;30529;53.570;9.964;2022-11-18T03:45:26;2.90;99.90
44817;DHT22;30529;53.570;9.964;2022-11-18T03:48:02;2.80;99.90
44817;DHT22;30529;53.570;9.964;2022-11-18T03:50:35;2.90;99.90
44817;DHT22;30529;53.570;9.964;2022-11-18T03:53:03;2.80;99.90
44817;DHT22;30529;53.570;9.964;2022-11-18T03:55:38;2.80;99.90
44817;DHT22;30529;53.570;9.964;2022-11-18T04:00:35;2.80;99.90
44817;DHT22;30529;53.570;9.964;2022-11-18T04:03:03;2.90;99.90
44817;DHT22;30529;53.570;9.964;2022-11-18T04:05:34;2.80;99.90
44817;DHT22;30529;53.570;9.964;2022-11-18T04:08:06;2.80;99.90
44817;DHT22;30529;53.570;9.964;2022-11-18T04:10:40;2.80;99.90
44817;DHT22;30529;53.570;9.964;2022-11-18T04:13:22;2.80;99.90
44817;DHT22;30529;53.570;9.964;2022-11-18T04:15:49;2.90;99.90
44817;DHT22;30529;53.570;9.964;2022-11-18T04:18:16;2.80;99.90
44817;DHT22;30529;53.570;9.964;2022-11-18T04:20:42;2.70;99.90
44817;DHT22;30529;53.570;9.964;2022-11-18T04:23:08;2.70;99.90
44817;DHT22;30529;53.570;9.964;2022-11-18T04:25:34;2.70;99.90
44817;DHT22;30529;53.570;9.964;2022-11-18T04:28:01;2.70;99.90
44817;DHT22;30529;53.570;9.964;2022-11-18T04:30:27;2.60;99.90
44817;DHT22;30529;53.570;9.964;2022-11-18T04:32:53;2.70;99.90
44817;DHT22;30529;53.570;9.964;2022-11-18T04:35:20;2.70;99.90
44817;DHT22;30529;53.570;9.964;2022-11-18T04:37:46;2.60;99.90
44817;DHT22;30529;53.570;9.964;2022-11-18T04:40:12;2.60;99.90
44817;DHT22;30529;53.570;9.964;2022-11-18T04:42:38;2.60;99.90
44817;DHT22;30529;53.570;9.964;2022-11-18T04:45:05;2.60;99.90
44817;DHT22;30529;53.570;9.964;2022-11-18T04:47:32;2.60;99.90
44817;DHT22;30529;53.570;9.964;2022-11-18T04:49:58;2.60;99.90
44817;DHT22;30529;53.570;9.964;2022-11-18T04:52:26;2.60;99.90
44817;DHT22;30529;53.570;9.964;2022-11-18T04:54:53;2.60;99.90
44817;DHT22;30529;53.570;9.964;2022-11-18T04:57:19;2.70;99.90
44817;DHT22;30529;53.570;9.964;2022-11-18T04:59:45;2.60;99.90
44817;DHT22;30529;53.570;9.964;2022-11-18T05:02:12;2.70;99.90
44817;DHT22;30529;53.570;9.964;2022-11-18T05:04:38;2.70;99.90
44817;DHT22;30529;53.570;9.964;2022-11-18T05:07:04;2.60;99.90
44817;DHT22;30529;53.570;9.964;2022-11-18T05:09:32;2.50;99.90
44817;DHT22;30529;53.570;9.964;2022-11-18T05:11:59;2.50;99.90
44817;DHT22;30529;53.570;9.964;2022-11-18T05:14:44;2.50;99.90
44817;DHT22;30529;53.570;9.964;2022-11-18T05:17:11;2.50;99.90
44817;DHT22;30529;53.570;9.964;2022-11-18T05:19:37;2.40;99.90
44817;DHT22;30529;53.570;9.964;2022-11-18T05:22:06;2.40;99.90
44817;DHT22;30529;53.570;9.964;2022-11-18T05:24:33;2.40;99.90
44817;DHT22;30529;53.570;9.964;2022-11-18T05:26:59;2.40;99.90
44817;DHT22;30529;53.570;9.964;2022-11-18T05:29:25;2.50;99.90
44817;DHT22;30529;53.570;9.964;2022-11-18T05:31:51;2.60;99.90
44817;DHT22;30529;53.570;9.964;2022-11-18T05:34:18;2.50;99.90
44817;DHT22;30529;53.570;9.964;2022-11-18T05:36:44;2.50;99.90
44817;DHT22;30529;53.570;9.964;2022-11-18T05:39:11;2.50;99.90
44817;DHT22;30529;53.570;9.964;2022-11-18T05:41:37;2.50;99.90
44817;DHT22;30529;53.570;9.964;2022-11-18T05:44:22;2.50;99.90
44817;DHT22;30529;53.570;9.964;2022-11-18T05:46:48;2.60;99.90
44817;DHT22;30529;53.570;9.964;2022-11-18T05:49:14;2.60;99.90
44817;DHT22;30529;53.570;9.964;2022-11-18T05:51:40;2.60;99.90
44817;DHT22;30529;53.570;9.964;2022-11-18T05:54:08;2.60;99.90
44817;DHT22;30529;53.570;9.964;2022-11-18T05:56:39;2.50;99.90
44817;DHT22;30529;53.570;9.964;2022-11-18T05:59:06;2.50;99.90
44817;DHT22;30529;53.570;9.964;2022-11-18T06:01:42;2.40;99.90
44817;DHT22;30529;53.570;9.964;2022-11-18T06:04:25;2.40;99.90
44817;DHT22;30529;53.570;9.964;2022-11-18T06:06:58;2.40;99.90
44817;DHT22;30529;53.570;9.964;2022-11-18T06:09:29;2.40;99.90
44817;DHT22;30529;53.570;9.964;2022-11-18T06:11:57;2.40;99.90
44817;DHT22;30529;53.570;9.964;2022-11-18T06:14:25;2.40;99.90
44817;DHT22;30529;53.570;9.964;2022-11-18T06:16:58;2.40;99.90
44817;DHT22;30529;53.570;9.964;2022-11-18T06:19:25;2.30;99.90
44817;DHT22;30529;53.570;9.964;2022-11-18T06:21:52;2.30;99.90
44817;DHT22;30529;53.570;9.964;2022-11-18T06:24:18;2.20;99.90
44817;DHT22;30529;53.570;9.964;2022-11-18T06:26:45;2.20;99.90
44817;DHT22;30529;53.570;9.964;2022-11-18T06:29:13;2.20;99.90
44817;DHT22;30529;53.570;9.964;2022-11-18T06:31:40;2.30;99.90
44817;DHT22;30529;53.570;9.964;2022-11-18T06:34:06;2.30;99.90
44817;DHT22;30529;53.570;9.964;2022-11-18T06:36:32;2.30;99.90
44817;DHT22;30529;53.570;9.964;2022-11-18T06:39:03;2.30;99.90
44817;DHT22;30529;53.570;9.964;2022-11-18T06:41:30;2.30;99.90
44817;DHT22;30529;53.570;9.964;2022-11-18T06:43:56;2.30;99.90
44817;DHT22;30529;53.570;9.964;2022-11-18T06:46:22;2.20;99.90
44817;DHT22;30529;53.570;9.964;2022-11-18T06:49:08;2.20;99.90
44817;DHT22;30529;53.570;9.964;2022-11-18T06:51:34;2.20;99.90
44817;DHT22;30529;53.570;9.964;2022-11-18T06:54:00;2.20;99.90
44817;DHT22;30529;53.570;9.964;2022-11-18T06:56:27;2.20;99.90
44817;DHT22;30529;53.570;9.964;2022-11-18T06:58:54;2.20;99.90
44817;DHT22;30529;53.570;9.964;2022-11-18T07:01:29;2.20;99.90
44817;DHT22;30529;53.570;9.964;2022-11-18T07:03:59;2.20;99.90
44817;DHT22;30529;53.570;9.964;2022-11-18T07:06:28;2.20;99.90
44817;DHT22;30529;53.570;9.964;2022-11-18T07:08:54;2.20;99.90
44817;DHT22;30529;53.570;9.964;2022-11-18T07:11:23;2.20;99.90
44817;DHT22;30529;53.570;9.964;2022-11-18T07:13:50;2.20;99.90
44817;DHT22;30529;53.570;9.964;2022-11-18T07:16:19;2.10;99.90
44817;DHT22;30529;53.570;9.964;2022-11-18T07:18:47;2.10;99.90
44817;DHT22;30529;53.570;9.964;2022-11-18T07:21:24;2.20;99.90
44817;DHT22;30529;53.570;9.964;2022-11-18T07:23:50;2.20;99.90
44817;DHT22;30529;53.570;9.964;2022-11-18T07:26:18;2.20;99.90
44817;DHT22;30529;53.570;9.964;2022-11-18T07:28:45;2.20;99.90
44817;DHT22;30529;53.570;9.964;2022-11-18T07:31:16;2.30;99.90
44817;DHT22;30529;53.570;9.964;2022-11-18T07:33:43;2.30;99.90
44817;DHT22;30529;53.570;9.964;2022-11-18T07:36:17;2.30;99.90
44817;DHT22;30529;53.570;9.964;2022-11-18T07:38:45;2.30;99.90
44817;DHT22;30529;53.570;9.964;2022-11-18T07:41:19;2.20;99.90
44817;DHT22;30529;53.570;9.964;2022-11-18T07:43:45;2.20;99.90
44817;DHT22;30529;53.570;9.964;2022-11-18T07:46:20;2.20;99.90
44817;DHT22;30529;53.570;9.964;2022-11-18T07:48:49;2.20;99.90
44817;DHT22;30529;53.570;9.964;2022-11-18T07:51:18;2.30;99.90
44817;DHT22;30529;53.570;9.964;2022-11-18T07:53:45;2.20;99.90
44817;DHT22;30529;53.570;9.964;2022-11-18T07:56:12;2.20;99.90
44817;DHT22;30529;53.570;9.964;2022-11-18T07:58:40;2.30;99.90
44817;DHT22;30529;53.570;9.964;2022-11-18T08:01:25;2.30;99.90
44817;DHT22;30529;53.570;9.964;2022-11-18T08:03:57;2.20;99.90
44817;DHT22;30529;53.570;9.964;2022-11-18T08:06:23;2.30;99.90
44817;DHT22;30529;53.570;9.964;2022-11-18T08:08:49;2.20;99.90
44817;DHT22;30529;53.570;9.964;2022-11-18T08:11:17;2.30;99.90
44817;DHT22;30529;53.570;9.964;2022-11-18T08:13:44;2.30;99.90
44817;DHT22;30529;53.570;9.964;2022-11-18T08:16:16;2.30;99.90
44817;DHT22;30529;53.570;9.964;2022-11-18T08:18:44;2.30;99.90
44817;DHT22;30529;53.570;9.964;2022-11-18T08:21:11;2.40;99.90
44817;DHT22;30529;53.570;9.964;2022-11-18T08:23:37;2.40;99.90
44817;DHT22;30529;53.570;9.964;2022-11-18T08:26:13;2.50;99.90
44817;DHT22;30529;53.570;9.964;2022-11-18T08:28:40;2.40;99.90
44817;DHT22;30529;53.570;9.964;2022-11-18T08:33:37;2.50;99.90
44817;DHT22;30529;53.570;9.964;2022-11-18T08:36:14;2.50;99.90
44817;DHT22;30529;53.570;9.964;2022-11-18T08:38:41;2.50;99.90
44817;DHT22;30529;53.570;9.964;2022-11-18T08:41:11;2.30;99.90
44817;DHT22;30529;53.570;9.964;2022-11-18T08:43:37;2.30;99.90
44817;DHT22;30529;53.570;9.964;2022-11-18T08:46:03;2.30;99.90
44817;DHT22;30529;53.570;9.964;2022-11-18T08:48:30;2.30;99.90
44817;DHT22;30529;53.570;9.964;2022-11-18T08:50:57;2.40;99.90
44817;DHT22;30529;53.570;9.964;2022-11-18T08:53:23;2.40;99.90
44817;DHT22;30529;53.570;9.964;2022-11-18T08:55:57;2.50;99.90
44817;DHT22;30529;53.570;9.964;2022-11-18T08:58:24;2.50;99.90
44817;DHT22;30529;53.570;9.964;2022-11-18T09:00:51;2.60;99.90
44817;DHT22;30529;53.570;9.964;2022-11-18T09:03:17;2.50;99.90
44817;DHT22;30529;53.570;9.964;2022-11-18T09:05:44;2.50;99.90
44817;DHT22;30529;53.570;9.964;2022-11-18T09:08:10;2.70;99.90
44817;DHT22;30529;53.570;9.964;2022-11-18T09:10:36;2.70;99.90
44817;DHT22;30529;53.570;9.964;2022-11-18T09:13:03;2.80;99.90
44817;DHT22;30529;53.570;9.964;2022-11-18T09:15:29;2.70;99.90
44817;DHT22;30529;53.570;9.964;2022-11-18T09:17:56;2.70;99.90
44817;DHT22;30529;53.570;9.964;2022-11-18T09:20:23;2.70;99.90
44817;DHT22;30529;53.570;9.964;2022-11-18T09:22:50;2.60;99.90
44817;DHT22;30529;53.570;9.964;2022-11-18T09:25:16;2.70;99.90
44817;DHT22;30529;53.570;9.964;2022-11-18T09:27:42;2.60;99.90
44817;DHT22;30529;53.570;9.964;2022-11-18T09:30:09;2.70;99.90
44817;DHT22;30529;53.570;9.964;2022-11-18T09:32:38;2.70;99.90
44817;DHT22;30529;53.570;9.964;2022-11-18T09:35:04;2.70;99.90
44817;DHT22;30529;53.570;9.964;2022-11-18T09:37:32;2.80;99.90
44817;DHT22;30529;53.570;9.964;2022-11-18T09:39:58;2.70;99.90
44817;DHT22;30529;53.570;9.964;2022-11-18T09:45:27;2.90;99.90
44817;DHT22;30529;53.570;9.964;2022-11-18T09:48:01;3.00;99.90
44817;DHT22;30529;53.570;9.964;2022-11-18T09:50:28;3.10;99.90
44817;DHT22;30529;53.570;9.964;2022-11-18T09:53:05;3.10;99.90
44817;DHT22;30529;53.570;9.964;2022-11-18T09:55:36;3.10;99.90
44817;DHT22;30529;53.570;9.964;2022-11-18T09:58:04;3.00;99.90
44817;DHT22;30529;53.570;9.964;2022-11-18T10:00:32;3.00;99.90
44817;DHT22;30529;53.570;9.964;2022-11-18T10:03:06;3.10;99.90
44817;DHT22;30529;53.570;9.964;2022-11-18T10:22:13;3.20;99.90
44817;DHT22;30529;53.570;9.964;2022-11-18T10:24:45;3.20;99.90
44817;DHT22;30529;53.570;9.964;2022-11-18T10:27:14;3.20;99.90
44817;DHT22;30529;53.570;9.964;2022-11-18T10:29:42;3.30;99.90
44817;DHT22;30529;53.570;9.964;2022-11-18T10:32:13;3.30;99.90
44817;DHT22;30529;53.570;9.964;2022-11-18T10:35:18;3.20;99.90
44817;DHT22;30529;53.570;9.964;2022-11-18T10:38:05;3.20;99.90
44817;DHT22;30529;53.570;9.964;2022-11-18T10:40:33;3.40;99.90
44817;DHT22;30529;53.570;9.964;2022-11-18T10:43:01;3.30;99.90
44817;DHT22;30529;53.570;9.964;2022-11-18T10:45:31;3.40;99.90
44817;DHT22;30529;53.570;9.964;2022-11-18T10:48:12;3.30;99.90
44817;DHT22;30529;53.570;9.964;2022-11-18T10:50:46;3.40;99.90
44817;DHT22;30529;53.570;9.964;2022-11-18T10:53:42;3.40;99.90
44817;DHT22;30529;53.570;9.964;2022-11-18T10:56:11;3.40;99.90
44817;DHT22;30529;53.570;9.964;2022-11-18T10:58:44;3.40;99.90
44817;DHT22;30529;53.570;9.964;2022-11-18T11:01:22;3.40;99.90
44817;DHT22;30529;53.570;9.964;2022-11-18T11:04:15;3.50;99.90
44817;DHT22;30529;53.570;9.964;2022-11-18T11:06:44;3.60;99.90
44817;DHT22;30529;53.570;9.964;2022-11-18T11:12:02;3.50;99.90
44817;DHT22;30529;53.570;9.964;2022-11-18T11:14:49;3.40;99.90
44817;DHT22;30529;53.570;9.964;2022-11-18T11:17:35;3.40;99.90
44817;DHT22;30529;53.570;9.964;2022-11-18T11:22:42;3.30;99.90
44817;DHT22;30529;53.570;9.964;2022-11-18T11:31:11;3.20;99.90
44817;DHT22;30529;53.570;9.964;2022-11-18T11:36:31;3.20;99.90
44817;DHT22;30529;53.570;9.964;2022-11-18T11:39:31;3.10;99.90
44817;DHT22;30529;53.570;9.964;2022-11-18T11:42:14;3.00;99.90
44817;DHT22;30529;53.570;9.964;2022-11-18T11:45:09;3.00;99.90
44817;DHT22;30529;53.570;9.964;2022-11-18T11:50:59;3.10;99.90
44817;DHT22;30529;53.570;9.964;2022-11-18T11:56:48;3.30;99.90
44817;DHT22;30529;53.570;9.964;2022-11-18T12:04:51;3.30;99.90
44817;DHT22;30529;53.570;9.964;2022-11-18T12:07:20;3.30;99.90
44817;DHT22;30529;53.570;9.964;2022-11-18T12:12:41;3.40;99.90
44817;DHT22;30529;53.570;9.964;2022-11-18T12:20:41;3.50;99.90
44817;DHT22;30529;53.570;9.964;2022-11-18T12:33:54;3.70;99.90
44817;DHT22;30529;53.570;9.964;2022-11-18T12:36:34;3.70;99.90
44817;DHT22;30529;53.570;9.964;2022-11-18T12:44:35;3.60;99.90
44817;DHT22;30529;53.570;9.964;2022-11-18T12:47:03;3.60;99.90
44817;DHT22;30529;53.570;9.964;2022-11-18T12:52:00;3.50;99.90
44817;DHT22;30529;53.570;9.964;2022-11-18T12:54:39;3.50;99.90
44817;DHT22;30529;53.570;9.964;2022-11-18T12:59:43;3.30;99.90
44817;DHT22;30529;53.570;9.964;2022-11-18T13:04:41;3.10;99.90
44817;DHT22;30529;53.570;9.964;2022-11-18T13:07:11;3.10;99.90
44817;DHT22;30529;53.570;9.964;2022-11-18T13:09:56;3.00;99.90
44817;DHT22;30529;53.570;9.964;2022-11-18T13:12:28;2.90;99.90
44817;DHT22;30529;53.570;9.964;2022-11-18T13:14:55;2.80;99.90
44817;DHT22;30529;53.570;9.964;2022-11-18T13:17:41;2.80;99.90
44817;DHT22;30529;53.570;9.964;2022-11-18T13:20:25;2.70;99.90
44817;DHT22;30529;53.570;9.964;2022-11-18T13:23:26;2.70;99.90
44817;DHT22;30529;53.570;9.964;2022-11-18T13:26:22;2.60;99.90
44817;DHT22;30529;53.570;9.964;2022-11-18T13:34:00;2.60;99.90
44817;DHT22;30529;53.570;9.964;2022-11-18T13:36:29;2.50;99.90
44817;DHT22;30529;53.570;9.964;2022-11-18T13:38:58;2.50;99.90
44817;DHT22;30529;53.570;9.964;2022-11-18T13:41:27;2.50;99.90
44817;DHT22;30529;53.570;9.964;2022-11-18T13:44:21;2.50;99.90
44817;DHT22;30529;53.570;9.964;2022-11-18T13:46:51;2.40;99.90
44817;DHT22;30529;53.570;9.964;2022-11-18T13:49:27;2.40;99.90
44817;DHT22;30529;53.570;9.964;2022-11-18T13:51:56;2.40;99.90
44817;DHT22;30529;53.570;9.964;2022-11-18T13:54:24;2.40;99.90
44817;DHT22;30529;53.570;9.964;2022-11-18T13:56:52;2.40;99.90
44817;DHT22;30529;53.570;9.964;2022-11-18T13:59:21;2.40;99.90
44817;DHT22;30529;53.570;9.964;2022-11-18T14:01:53;2.40;99.90
44817;DHT22;30529;53.570;9.964;2022-11-18T14:04:25;2.40;99.90
44817;DHT22;30529;53.570;9.964;2022-11-18T14:06:52;2.40;99.90
44817;DHT22;30529;53.570;9.964;2022-11-18T14:09:25;2.30;99.90
44817;DHT22;30529;53.570;9.964;2022-11-18T14:12:18;2.30;99.90
44817;DHT22;30529;53.570;9.964;2022-11-18T14:14:46;2.30;99.90
44817;DHT22;30529;53.570;9.964;2022-11-18T14:17:26;2.30;99.90
44817;DHT22;30529;53.570;9.964;2022-11-18T14:19:57;2.30;99.90
44817;DHT22;30529;53.570;9.964;2022-11-18T14:22:28;2.20;99.90
44817;DHT22;30529;53.570;9.964;2022-11-18T14:25:14;2.20;99.90
44817;DHT22;30529;53.570;9.964;2022-11-18T14:27:49;2.20;99.90
44817;DHT22;30529;53.570;9.964;2022-11-18T14:33:21;2.20;99.90
44817;DHT22;30529;53.570;9.964;2022-11-18T14:36:08;2.10;99.90
44817;DHT22;30529;53.570;9.964;2022-11-18T14:38:54;2.10;99.90
44817;DHT22;30529;53.570;9.964;2022-11-18T14:41:21;2.10;99.90
44817;DHT22;30529;53.570;9.964;2022-11-18T14:44:06;2.10;99.90
44817;DHT22;30529;53.570;9.964;2022-11-18T14:46:35;2.10;99.90
44817;DHT22;30529;53.570;9.964;2022-11-18T14:49:03;2.10;99.90
44817;DHT22;30529;53.570;9.964;2022-11-18T14:51:30;2.00;99.90
44817;DHT22;30529;53.570;9.964;2022-11-18T14:53:56;2.00;99.90
44817;DHT22;30529;53.570;9.964;2022-11-18T14:56:26;2.00;99.90
44817;DHT22;30529;53.570;9.964;2022-11-18T14:58:53;2.00;99.90
44817;DHT22;30529;53.570;9.964;2022-11-18T15:01:20;1.90;99.90
44817;DHT22;30529;53.570;9.964;2022-11-18T15:03:46;1.90;99.90
44817;DHT22;30529;53.570;9.964;2022-11-18T15:06:19;1.90;99.90
44817;DHT22;30529;53.570;9.964;2022-11-18T15:08:48;1.90;99.90
44817;DHT22;30529;53.570;9.964;2022-11-18T15:11:14;1.90;99.90
44817;DHT22;30529;53.570;9.964;2022-11-18T15:13:41;1.90;99.90
44817;DHT22;30529;53.570;9.964;2022-11-18T15:18:47;1.80;99.90
44817;DHT22;30529;53.570;9.964;2022-11-18T15:21:14;1.80;99.90
44817;DHT22;30529;53.570;9.964;2022-11-18T15:23:40;1.80;99.90
44817;DHT22;30529;53.570;9.964;2022-11-18T15:26:33;1.80;99.90
44817;DHT22;30529;53.570;9.964;2022-11-18T15:29:00;1.80;99.90
44817;DHT22;30529;53.570;9.964;2022-11-18T15:31:27;1.80;99.90
44817;DHT22;30529;53.570;9.964;2022-11-18T15:33:53;1.70;99.90
44817;DHT22;30529;53.570;9.964;2022-11-18T15:36:23;1.70;99.90
44817;DHT22;30529;53.570;9.964;2022-11-18T15:38:51;1.70;99.90
44817;DHT22;30529;53.570;9.964;2022-11-18T15:41:20;1.70;99.90
44817;DHT22;30529;53.570;9.964;2022-11-18T15:43:47;1.60;99.90
44817;DHT22;30529;53.570;9.964;2022-11-18T15:46:15;1.60;99.90
44817;DHT22;30529;53.570;9.964;2022-11-18T15:48:42;1.60;99.90
44817;DHT22;30529;53.570;9.964;2022-11-18T15:51:08;1.60;99.90
44817;DHT22;30529;53.570;9.964;2022-11-18T15:53:34;1.50;99.90
44817;DHT22;30529;53.570;9.964;2022-11-18T15:56:13;1.50;99.90
44817;DHT22;30529;53.570;9.964;2022-11-18T15:58:40;1.50;99.90
44817;DHT22;30529;53.570;9.964;2022-11-18T16:01:06;1.50;99.90
44817;DHT22;30529;53.570;9.964;2022-11-18T16:03:33;1.50;99.90
44817;DHT22;30529;53.570;9.964;2022-11-18T16:05:59;1.60;99.90
44817;DHT22;30529;53.570;9.964;2022-11-18T16:08:26;1.50;99.90
44817;DHT22;30529;53.570;9.964;2022-11-18T16:10:56;1.50;99.90
44817;DHT22;30529;53.570;9.964;2022-11-18T16:13:41;1.50;99.90
44817;DHT22;30529;53.570;9.964;2022-11-18T16:16:16;1.40;99.90
44817;DHT22;30529;53.570;9.964;2022-11-18T16:18:42;1.40;99.90
44817;DHT22;30529;53.570;9.964;2022-11-18T16:21:09;1.40;99.90
44817;DHT22;30529;53.570;9.964;2022-11-18T16:23:38;1.40;99.90
44817;DHT22;30529;53.570;9.964;2022-11-18T16:26:05;1.30;99.90
44817;DHT22;30529;53.570;9.964;2022-11-18T16:28:31;1.40;99.90
44817;DHT22;30529;53.570;9.964;2022-11-18T16:30:57;1.30;99.90
44817;DHT22;30529;53.570;9.964;2022-11-18T16:33:41;1.30;99.90
44817;DHT22;30529;53.570;9.964;2022-11-18T16:36:12;1.30;99.90
44817;DHT22;30529;53.570;9.964;2022-11-18T16:38:38;1.30;99.90
44817;DHT22;30529;53.570;9.964;2022-11-18T16:41:04;1.30;99.90
44817;DHT22;30529;53.570;9.964;2022-11-18T16:43:50;1.30;99.90
44817;DHT22;30529;53.570;9.964;2022-11-18T16:46:17;1.20;99.90
44817;DHT22;30529;53.570;9.964;2022-11-18T16:48:43;1.20;99.90
44817;DHT22;30529;53.570;9.964;2022-11-18T16:53:42;1.10;99.90
44817;DHT22;30529;53.570;9.964;2022-11-18T16:56:08;1.20;99.90
44817;DHT22;30529;53.570;9.964;2022-11-18T16:58:34;1.20;99.90
44817;DHT22;30529;53.570;9.964;2022-11-18T17:01:11;1.20;99.90
44817;DHT22;30529;53.570;9.964;2022-11-18T17:03:37;1.20;99.90
44817;DHT22;30529;53.570;9.964;2022-11-18T17:06:04;1.20;99.90
44817;DHT22;30529;53.570;9.964;2022-11-18T17:08:37;1.20;99.90
44817;DHT22;30529;53.570;9.964;2022-11-18T17:11:05;1.20;99.90
44817;DHT22;30529;53.570;9.964;2022-11-18T17:13:31;1.20;99.90
44817;DHT22;30529;53.570;9.964;2022-11-18T17:15:57;1.20;99.90
44817;DHT22;30529;53.570;9.964;2022-11-18T17:18:23;1.20;99.90
44817;DHT22;30529;53.570;9.964;2022-11-18T17:20:50;1.20;99.90
44817;DHT22;30529;53.570;9.964;2022-11-18T17:23:16;1.20;99.90
44817;DHT22;30529;53.570;9.964;2022-11-18T17:25:42;1.20;99.90
44817;DHT22;30529;53.570;9.964;2022-11-18T17:28:08;1.20;99.90
44817;DHT22;30529;53.570;9.964;2022-11-18T17:30:34;1.20;99.90
44817;DHT22;30529;53.570;9.964;2022-11-18T17:33:01;1.20;99.90
44817;DHT22;30529;53.570;9.964;2022-11-18T17:35:27;1.30;99.90
44817;DHT22;30529;53.570;9.964;2022-11-18T17:37:53;1.20;99.90
44817;DHT22;30529;53.570;9.964;2022-11-18T17:40:19;1.30;99.90
44817;DHT22;30529;53.570;9.964;2022-11-18T17:42:48;1.30;99.90
44817;DHT22;30529;53.570;9.964;2022-11-18T17:45:15;1.20;99.90
44817;DHT22;30529;53.570;9.964;2022-11-18T17:47:41;1.20;99.90
44817;DHT22;30529;53.570;9.964;2022-11-18T17:50:07;1.20;99.90
44817;DHT22;30529;53.570;9.964;2022-11-18T17:52:34;1.20;99.90
44817;DHT22;30529;53.570;9.964;2022-11-18T17:55:00;1.20;99.90
44817;DHT22;30529;53.570;9.964;2022-11-18T17:57:27;1.20;99.90
44817;DHT22;30529;53.570;9.964;2022-11-18T17:59:53;1.20;99.90
44817;DHT22;30529;53.570;9.964;2022-11-18T18:02:20;1.10;99.90